Rock Island, TN (38581)

11:34 PM CST on December 02, 2016 (GMT -0600)
Rock Island | | Change Station

Elev 892 ft 35.78 °N, 85.61 °W | Updated 16 seconds ago

Clear
Clear
34.0 °F
Feels Like 34 °F
N
0.0
Wind Variable Wind from SSE

Today
High -- | Low -- °F
--% Chance of Precip.
Yesterday
High -- | Low -- °F
Precip. -- in
Pressure 30.30 in
Visibility 10.0 miles
Clouds Clear
Windchill 34 °F
Dew Point 33 °F
Humidity 98%
Rainfall 0.00 in
Snow Depth Not available.
6:35 AM 4:28 PM
Waxing Crescent, 12% visible
METAR KCSV 030453Z AUTO 34004KT 10SM CLR 03/M03 A3029 RMK AO2 SLP259 T00331028
Pressure 30.30 in
Visibility 10.0 miles
Clouds Clear
Windchill 34 °F
Dew Point 33 °F
Humidity 98%
Rainfall 0.00 in
Snow Depth Not available.
6:35 AM 4:28 PM
Waxing Crescent, 12% visible
METAR KCSV 030453Z AUTO 34004KT 10SM CLR 03/M03 A3029 RMK AO2 SLP259 T00331028

10-Day Weather Forecast

Almanac

Astronomy

Dec. 02, 2016 Rise Set
Actual Time
Civil Twilight
Nautical Twilight
Astronomical Twilight
Moon
Length of Visible Light
Length of Day
Tomorrow will be .
, % of the Moon is Illuminated

Today's Extremes

State Highs State Lows

Community

WunderPhotos

Upload Photos

1,955,413 photos uploaded!

WunderBlog® & News

Nearby

Air Quality

  Air Quality AQ Index Pollutant
Not available.

Snow Depth

Station Depth Elevation

Earthquake Activity

City Distance Mag. Time & Date
Minimum magnitude displayed is 2.5.

Coastal Water Temperatures

Place Temperature

Stations

Nearby Weather Stations

Station Location Temp. Windchill Dew Point Humidity Wind Precip. Elev Updated Type
                   

Watches & Warnings

There are currently no watches in effect.